Weather reports worldwide

Advertisment
La Hoya, Spain (8205): temperature & dewpoint: 14.06.2019 06:00:00 - 20.06.2019 06:00:00 (CEST)La Hoya, Spain (8205): wind speed & gusts: 14.06.2019 06:00:00 - 20.06.2019 06:00:00 (CEST)La Hoya, Spain (8205): wind direction: 14.06.2019 06:00:00 - 20.06.2019 06:00:00 (CEST)La Hoya, Spain (8205): visibility: 14.06.2019 06:00:00 - 20.06.2019 06:00:00 (CEST)La Hoya, Spain (8205): sunshine duration: 14.06.2019 06:00:00 - 20.06.2019 06:00:00 (CEST)La Hoya, Spain (8205): precipitation: 14.06.2019 06:00:00 - 20.06.2019 06:00:00 (CEST)
Date & Time tt [°C] td [°C] ff [km/h] ff [kn] fx [km/h] fx [kn] dd vv [km] sd [min] rr [mm]
20.06.2019 06:00:00 - - - - - - - - - -
20.06.2019 05:00:00 7,4 6,5 18 10 26 14 E 20 0 0,0
20.06.2019 04:00:00 7,5 6,5 16 8 - - E 20 - -
20.06.2019 03:00:00 6,6 5,9 9 5 13 7 ESE 20 0 0,0
20.06.2019 02:00:00 6,4 4,6 5 3 11 6 S 20 0 -
20.06.2019 01:00:00 6,4 3,6 7 4 11 6 S 20 0 0,0
20.06.2019 00:00:00 6,8 3,8 10 5 14 7 SW 20 0 0,0
19.06.2019 23:00:00 6,7 3,4 10 5 13 7 SW 20 0 0,0
19.06.2019 22:00:00 8,8 5,1 11 6 19 10 SW 20 39 0,0
19.06.2019 21:00:00 11,6 6,1 13 7 29 16 W 20 60 0,0
19.06.2019 20:00:00 11,7 6,4 18 10 37 20 WSW 20 57 -
19.06.2019 19:00:00 11,3 5,6 25 13 38 20 WSW 20 49 0,0
19.06.2019 18:00:00 10,9 7,4 21 11 40 21 WSW 20 6 0,0
19.06.2019 17:00:00 11,2 7,0 21 12 33 18 WSW 20 19 0,0
19.06.2019 16:00:00 11,6 6,7 24 13 - - W 20 - -
19.06.2019 15:00:00 - - - - - - - - - -
19.06.2019 14:00:00 11,1 7,0 26 14 36 19 WSW 20 48 -
19.06.2019 13:00:00 - - - - - - - - - -
19.06.2019 12:00:00 8,0 7,0 18 10 31 17 W 2,1 16 0,0
19.06.2019 11:00:00 - - - - - - - - - -
19.06.2019 10:00:00 - - - - - - - - - -
19.06.2019 09:00:00 - - - - - - - - - -
19.06.2019 08:00:00 - - - - - - - - - -
19.06.2019 07:00:00 - - - - - - - - - -
19.06.2019 06:00:00 - - - - - - - - - -
19.06.2019 05:00:00 - - - - - - - - - -
19.06.2019 04:00:00 - - - - - - - - - -
19.06.2019 03:00:00 - - - - - - - - - -
19.06.2019 02:00:00 - - - - - - - - - -
19.06.2019 01:00:00 - - - - - - - - - -
19.06.2019 00:00:00 - - - - - - - - - -
18.06.2019 23:00:00 - - - - - - - - - -
18.06.2019 22:00:00 - - - - - - - - - -
18.06.2019 21:00:00 - - - - - - - - - -
18.06.2019 20:00:00 - - - - - - - - - -
18.06.2019 19:00:00 11,8 7,3 19 10 66 36 W 20 40 0,0
18.06.2019 18:00:00 12,5 5,9 36 19 71 38 WSW 20 48 0,0
18.06.2019 17:00:00 12,9 5,6 39 21 64 35 WSW 20 37 0,0
18.06.2019 16:00:00 12,2 6,2 35 19 71 38 SW 20 56 0,0
18.06.2019 15:00:00 13,5 3,6 26 14 61 33 SW 20 60 0,0
18.06.2019 14:00:00 13,0 3,4 29 15 66 35 SW 20 60 -
18.06.2019 13:00:00 13,4 1,5 33 18 60 32 SSW 20 60 0,0
18.06.2019 12:00:00 13,0 -10,3 36 19 61 33 SSW 20 60 0,0
18.06.2019 11:00:00 12,9 -15,1 36 20 62 34 SSW 20 17 0,0
18.06.2019 10:00:00 12,3 -18,8 40 22 64 34 SSW 20 0 0,0
18.06.2019 09:00:00 11,9 -15,8 40 21 68 37 SSW 20 0 0,0
18.06.2019 08:00:00 10,9 -11,7 33 18 61 33 SSW 20 0 -
18.06.2019 07:00:00 10,5 -10,3 34 19 59 32 SSW 20 0 0,0
18.06.2019 06:00:00 11,0 -8,2 34 18 59 32 SSW 20 0 0,0
18.06.2019 05:00:00 11,2 -7,5 29 16 58 31 SSW 20 0 0,0
18.06.2019 04:00:00 11,6 -3,9 29 16 51 27 S 20 0 0,0
18.06.2019 03:00:00 11,6 -3,0 22 12 40 22 S 20 0 0,0
18.06.2019 02:00:00 11,9 -4,2 18 10 31 17 SSW 20 0 -
18.06.2019 01:00:00 12,9 -4,8 17 9 34 18 S 20 0 0,0
18.06.2019 00:00:00 13,0 -5,7 10 5 23 12 S 20 0 0,0
17.06.2019 23:00:00 13,2 -6,0 11 6 22 12 SSE 20 0 0,0
17.06.2019 22:00:00 12,2 -5,7 14 7 21 11 W 20 0 0,0
17.06.2019 21:00:00 13,1 -6,0 15 8 27 15 W 20 0 0,0
17.06.2019 20:00:00 14,8 -4,5 12 7 29 16 WSW 20 8 -
17.06.2019 19:00:00 14,5 -5,7 18 10 37 20 SSW 20 23 0,0
17.06.2019 18:00:00 15,4 -6,4 14 8 38 20 SW 20 10 0,0
17.06.2019 17:00:00 14,1 -2,5 23 13 46 25 S 20 0 0,0
17.06.2019 16:00:00 14,8 0,6 21 11 42 23 S 20 49 0,0
17.06.2019 15:00:00 16,2 -0,5 26 14 43 23 S 20 60 0,0
17.06.2019 14:00:00 16,2 -6,7 22 12 45 24 SSW 20 60 -
17.06.2019 13:00:00 15,4 -4,5 16 9 50 27 SW 20 60 0,0
17.06.2019 12:00:00 13,7 -1,2 25 14 46 25 SSW 20 60 0,0
17.06.2019 11:00:00 13,8 -0,3 17 9 46 25 WSW 20 17 0,0
17.06.2019 10:00:00 13,2 -0,5 25 14 41 22 S 20 0 0,0
17.06.2019 09:00:00 13,0 -1,7 12 6 27 15 WSW 20 0 0,0
17.06.2019 08:00:00 11,1 0,4 9 5 30 16 W 20 0 -
17.06.2019 07:00:00 9,8 -2,7 16 9 32 17 SW 20 0 0,0
17.06.2019 06:00:00 10,8 -1,7 21 11 33 18 SW 20 0 0,0
17.06.2019 05:00:00 10,4 -1,7 19 10 30 16 SSW 20 0 0,0
17.06.2019 04:00:00 11,2 -2,7 16 9 33 18 SSW 20 0 0,0
17.06.2019 03:00:00 11,1 -2,0 18 10 29 16 SW 20 0 0,0
17.06.2019 02:00:00 9,3 -4,5 15 8 21 12 SSW 20 0 -
17.06.2019 01:00:00 7,6 -5,1 6 3 17 9 S 20 0 0,0
17.06.2019 00:00:00 9,5 -2,0 13 7 20 11 S 20 0 0,0
16.06.2019 23:00:00 9,8 -1,2 12 7 19 10 S 20 0 0,0
16.06.2019 22:00:00 11,3 -1,2 11 6 29 15 SW 20 38 0,0
16.06.2019 21:00:00 14,3 -1,0 16 9 36 20 WSW 20 60 0,0
16.06.2019 20:00:00 15,6 -0,7 20 11 32 17 WSW 20 54 -
16.06.2019 19:00:00 14,4 -1,7 22 12 40 22 WSW 20 53 0,0
16.06.2019 18:00:00 16,6 -2,0 13 7 40 22 WSW 20 60 0,0
16.06.2019 17:00:00 16,8 0,0 16 9 29 16 WNW 20 60 0,0
16.06.2019 16:00:00 15,4 0,0 11 6 20 11 WNW 20 37 0,0
16.06.2019 15:00:00 14,6 -1,2 9 5 23 12 WNW 20 11 0,0
16.06.2019 14:00:00 14,3 2,5 12 7 27 15 W 20 56 -
16.06.2019 13:00:00 14,6 2,1 10 5 19 11 SW 20 51 0,0
16.06.2019 12:00:00 14,1 -0,7 6 4 16 9 NW 20 60 0,0
16.06.2019 11:00:00 13,9 -3,0 7 4 22 12 NNW 20 20 0,0
16.06.2019 10:00:00 12,6 -4,2 8 4 28 15 NW 20 0 0,0
16.06.2019 09:00:00 10,9 -2,2 16 9 34 18 S 20 0 0,0
16.06.2019 08:00:00 10,0 -5,1 13 7 28 15 S 20 0 -
16.06.2019 07:00:00 8,9 -8,2 18 10 27 15 SSW 20 0 0,0
16.06.2019 06:00:00 7,7 -4,2 8 5 31 17 W 20 0 0,0
16.06.2019 05:00:00 8,9 -5,7 17 9 32 17 SSW 20 0 0,0
16.06.2019 04:00:00 8,2 -2,0 9 5 34 18 SW 20 0 0,0
16.06.2019 03:00:00 8,5 0,0 21 11 31 17 SSE 20 0 0,0
16.06.2019 02:00:00 8,0 0,0 20 11 27 15 SE 20 0 -
16.06.2019 01:00:00 7,2 -1,7 20 11 23 12 ESE 20 0 0,0
16.06.2019 00:00:00 6,8 -1,2 9 5 13 7 ESE 20 0 0,0
15.06.2019 23:00:00 6,7 0,2 6 4 9 5 SSE 20 0 0,0
15.06.2019 22:00:00 7,9 0,2 4 2 12 6 SSW 13 37 0,0
15.06.2019 21:00:00 11,4 -0,5 3 2 17 9 NNE 20 60 0,0
15.06.2019 20:00:00 12,3 0,0 10 6 19 11 W 20 60 -
15.06.2019 19:00:00 12,8 1,5 12 7 29 16 WNW 20 60 0,0
15.06.2019 18:00:00 12,6 1,3 14 7 31 17 W 20 60 0,0
15.06.2019 17:00:00 12,5 2,7 14 8 29 16 W 20 59 0,0
15.06.2019 16:00:00 11,5 1,7 18 10 32 17 W 20 59 0,0
15.06.2019 15:00:00 11,0 2,3 13 7 26 14 W 20 59 0,0
15.06.2019 14:00:00 10,2 2,3 11 6 22 12 WNW 20 60 -
15.06.2019 13:00:00 8,8 2,1 12 6 22 12 WNW 20 60 0,0
15.06.2019 12:00:00 8,5 1,9 8 4 17 9 NW 20 59 0,0
15.06.2019 11:00:00 6,0 1,9 4 2 16 9 NNW 20 10 0,0
15.06.2019 10:00:00 8,0 1,9 5 3 11 6 NNW 20 0 0,0
15.06.2019 09:00:00 6,2 -3,3 6 4 12 6 WNW 20 0 0,0
15.06.2019 08:00:00 4,1 -2,0 8 5 13 7 W 20 0 -
15.06.2019 07:00:00 0,5 -4,8 10 5 14 8 SW 20 0 0,0
15.06.2019 06:00:00 0,0 -2,0 12 6 15 8 SW 20 0 0,0
15.06.2019 05:00:00 -0,5 -2,5 6 3 14 8 WSW 20 0 0,0
15.06.2019 04:00:00 0,1 -1,4 5 3 13 7 S 20 0 0,0
15.06.2019 03:00:00 0,2 -1,2 9 5 14 7 SW 20 0 0,0
15.06.2019 02:00:00 2,0 -0,5 12 7 15 8 SSW 20 0 -
15.06.2019 01:00:00 2,6 0,2 11 6 17 9 SSW 20 0 0,0
15.06.2019 00:00:00 3,0 1,7 7 4 20 11 W 20 0 0,0
14.06.2019 23:00:00 3,6 1,1 11 6 36 19 W 20 0 0,0
14.06.2019 22:00:00 4,1 0,9 29 16 42 23 WSW 20 0 0,0
14.06.2019 21:00:00 5,0 0,4 27 15 46 25 WSW 20 31 0,0
14.06.2019 20:00:00 7,0 0,4 27 15 44 24 WSW 20 22 -
14.06.2019 19:00:00 8,5 0,4 24 13 51 28 WSW 20 29 0,0
14.06.2019 18:00:00 8,0 0,2 24 13 49 27 WSW 20 51 0,0
14.06.2019 17:00:00 7,6 1,7 24 13 46 25 WSW 20 28 0,0
14.06.2019 16:00:00 8,9 2,3 23 13 46 25 W 20 55 0,0
14.06.2019 15:00:00 9,2 0,2 28 15 46 25 W 20 60 0,0
14.06.2019 14:00:00 8,5 0,2 20 11 34 19 WNW 20 60 -
14.06.2019 13:00:00 8,8 0,6 18 10 25 13 WNW 20 60 0,0
14.06.2019 12:00:00 8,9 -0,7 13 7 22 12 WNW 20 60 0,0
14.06.2019 11:00:00 10,4 -9,9 9 5 30 16 WNW 20 19 0,0
14.06.2019 10:00:00 8,2 -1,4 11 6 29 15 NW 20 0 0,0
14.06.2019 09:00:00 7,6 -1,0 7 4 49 27 N 20 0 0,0
14.06.2019 08:00:00 6,2 -3,9 16 8 44 24 W 20 0 -
14.06.2019 07:00:00 3,3 -4,5 6 3 14 8 SSW 20 0 0,0
14.06.2019 06:00:00 2,8 -2,2 5 3 31 17 WSW 20 0 0,0

tt = temperature
td = dewpoint
ff = wind speed
fx = gusts
dd = wind direction
vv = visibility
sd = sunshine duration
rr = precipitation

Next stations